createdAt,value
2019-02-05T00:01:37.523Z,0.20
2019-02-05T00:04:07.441Z,0.37
2019-02-05T00:06:37.475Z,0.65
2019-02-05T00:09:11.317Z,0.33
2019-02-05T00:11:41.255Z,0.25
2019-02-05T00:14:11.188Z,0.30
2019-02-05T00:16:41.497Z,0.30
2019-02-05T00:19:13.406Z,0.30
2019-02-05T00:21:43.575Z,0.30
2019-02-05T00:24:14.030Z,0.40
2019-02-05T00:26:44.119Z,0.40
2019-02-05T00:29:14.120Z,0.40
2019-02-05T00:31:44.823Z,0.20
2019-02-05T00:34:15.081Z,0.45
2019-02-05T00:36:45.038Z,0.28
2019-02-05T00:39:15.453Z,0.47
2019-02-05T00:41:45.419Z,0.33
2019-02-05T00:44:15.597Z,0.30
2019-02-05T00:46:45.557Z,0.20
2019-02-05T00:49:15.768Z,0.20
2019-02-05T00:51:45.796Z,0.20
2019-02-05T00:54:15.769Z,0.30
2019-02-05T00:56:45.693Z,0.53
2019-02-05T00:59:15.917Z,0.42
2019-02-05T01:01:46.068Z,0.20
2019-02-05T01:04:17.798Z,0.40
2019-02-05T01:06:48.472Z,0.30
2019-02-05T01:09:18.465Z,0.20
2019-02-05T01:11:48.677Z,0.55
2019-02-05T01:14:18.632Z,0.30
2019-02-05T01:16:48.516Z,0.25
2019-02-05T01:19:18.624Z,0.20
2019-02-05T01:21:48.916Z,0.40
2019-02-05T01:24:19.025Z,0.40
2019-02-05T01:26:48.962Z,0.20
2019-02-05T01:29:19.032Z,0.20
2019-02-05T01:31:48.950Z,0.40
2019-02-05T01:34:18.834Z,0.33
2019-02-05T01:36:48.766Z,0.20
2019-02-05T01:39:19.100Z,0.30
2019-02-05T01:41:49.068Z,0.20
2019-02-05T01:44:19.036Z,0.13
2019-02-05T01:46:49.110Z,0.50
2019-02-05T01:49:19.133Z,0.40
2019-02-05T01:51:49.176Z,0.20
2019-02-05T01:54:20.030Z,0.20
2019-02-05T01:56:50.500Z,0.20
2019-02-05T01:59:20.510Z,0.30
2019-02-05T02:01:50.454Z,0.20
2019-02-05T02:04:20.369Z,0.60
2019-02-05T02:06:50.582Z,0.60
2019-02-05T02:09:27.932Z,0.60
2019-02-05T02:12:06.986Z,0.35
2019-02-05T02:14:36.959Z,0.47
2019-02-05T02:17:07.130Z,0.33
2019-02-05T02:19:37.168Z,0.60
2019-02-05T02:22:08.373Z,0.55
2019-02-05T02:24:40.604Z,0.57
2019-02-05T02:27:10.674Z,0.30
2019-02-05T02:29:40.677Z,0.35
2019-02-05T02:32:10.985Z,0.62
2019-02-05T02:34:41.475Z,0.65
2019-02-05T02:37:11.413Z,0.25
2019-02-05T02:39:41.403Z,0.72
2019-02-05T02:42:11.425Z,0.70
2019-02-05T02:44:41.404Z,0.47
2019-02-05T02:47:11.420Z,0.80
2019-02-05T02:49:41.337Z,0.95
2019-02-05T02:52:11.225Z,0.53
2019-02-05T02:54:41.833Z,1.15
2019-02-05T02:57:11.747Z,0.75
2019-02-05T02:59:43.039Z,1.10
2019-02-05T03:02:12.929Z,0.88
2019-02-05T03:04:43.770Z,1.12
2019-02-05T03:07:15.378Z,1.27
2019-02-05T03:09:45.359Z,1.32
2019-02-05T03:12:15.410Z,1.02
2019-02-05T03:14:45.551Z,0.60
2019-02-05T03:17:15.550Z,1.35
2019-02-05T03:19:45.381Z,0.98
2019-02-05T03:22:15.353Z,1.27
2019-02-05T03:24:45.331Z,1.65
2019-02-05T03:27:18.217Z,0.93
2019-02-05T03:29:48.229Z,1.00
2019-02-05T03:32:18.282Z,0.62
2019-02-05T03:34:48.215Z,0.95
2019-02-05T03:37:18.215Z,1.10
2019-02-05T03:39:48.174Z,1.00
2019-02-05T03:42:18.037Z,1.12
2019-02-05T03:44:48.791Z,1.17
2019-02-05T03:47:19.531Z,0.50
2019-02-05T03:49:49.419Z,0.60
2019-02-05T03:52:41.447Z,0.60
2019-02-05T03:55:48.107Z,0.62
2019-02-05T03:58:52.135Z,0.95
2019-02-05T04:01:45.065Z,0.60
2019-02-05T04:05:05.621Z,0.85
2019-02-05T04:08:02.671Z,1.47
2019-02-05T04:11:22.745Z,1.00
2019-02-05T04:14:25.994Z,1.10
2019-02-05T04:17:57.545Z,1.35
2019-02-05T04:20:49.057Z,1.17
2019-02-05T04:23:55.815Z,1.05
2019-02-05T04:27:03.896Z,1.27
2019-02-05T04:30:13.669Z,1.85
2019-02-05T04:33:13.746Z,1.30
2019-02-05T04:36:23.441Z,1.55
2019-02-05T04:39:29.937Z,1.90
2019-02-05T04:42:25.122Z,2.00
2019-02-05T04:45:34.502Z,2.40
2019-02-05T04:48:43.572Z,2.87
2019-02-05T04:52:09.300Z,2.20
2019-02-05T04:55:15.193Z,2.75
2019-02-05T04:58:19.534Z,2.42
2019-02-05T05:01:24.753Z,3.30
2019-02-05T05:04:15.344Z,3.37
2019-02-05T05:07:03.119Z,4.05
2019-02-05T05:09:59.369Z,3.92
2019-02-05T05:12:40.717Z,5.17
2019-02-05T05:15:16.733Z,4.70
2019-02-05T05:17:48.268Z,3.55
2019-02-05T05:20:18.112Z,4.30
2019-02-05T05:22:48.360Z,4.05
2019-02-05T05:25:18.908Z,5.55
2019-02-05T05:27:53.281Z,4.87
2019-02-05T05:30:26.229Z,5.75
2019-02-05T05:32:58.934Z,5.58
2019-02-05T05:35:40.666Z,6.05
2019-02-05T05:38:03.513Z,5.75
2019-02-05T05:40:33.447Z,6.87
2019-02-05T05:43:11.628Z,5.97
2019-02-05T05:45:49.433Z,5.53
2019-02-05T05:48:20.086Z,7.25
2019-02-05T05:50:50.077Z,7.17
2019-02-05T05:53:20.536Z,6.62
2019-02-05T05:55:50.772Z,6.58
2019-02-05T05:58:23.164Z,7.45
2019-02-05T06:00:52.561Z,6.83
2019-02-05T06:03:22.574Z,7.67
2019-02-05T06:05:52.776Z,8.23
2019-02-05T06:08:22.899Z,8.90
2019-02-05T06:10:52.764Z,8.33
2019-02-05T06:13:22.746Z,8.38
2019-02-05T06:15:52.762Z,9.25
2019-02-05T06:18:23.376Z,9.33
2019-02-05T06:20:53.538Z,8.75
2019-02-05T06:23:23.498Z,9.48
2019-02-05T06:25:53.613Z,10.08
2019-02-05T06:28:34.405Z,10.35
2019-02-05T06:30:56.491Z,11.08
2019-02-05T06:33:29.016Z,11.30
2019-02-05T06:35:59.166Z,11.12
2019-02-05T06:38:29.230Z,10.90
2019-02-05T06:40:59.326Z,11.00
2019-02-05T06:43:31.464Z,11.65
2019-02-05T06:46:01.693Z,12.37
2019-02-05T06:48:31.652Z,10.82
2019-02-05T06:51:01.635Z,11.63
2019-02-05T06:53:31.716Z,11.65
2019-02-05T06:56:01.726Z,11.80
2019-02-05T06:58:31.646Z,12.88
2019-02-05T07:01:03.278Z,12.78
2019-02-05T07:03:33.212Z,13.25
2019-02-05T07:06:03.252Z,12.10
2019-02-05T07:08:33.450Z,12.03
2019-02-05T07:11:03.981Z,12.78
2019-02-05T07:13:35.730Z,11.93
2019-02-05T07:16:05.934Z,12.43
2019-02-05T07:18:35.968Z,13.25
2019-02-05T07:21:06.130Z,12.40
2019-02-05T07:23:36.223Z,13.62
2019-02-05T07:26:06.257Z,12.58
2019-02-05T07:28:36.195Z,13.32
2019-02-05T07:31:06.316Z,12.95
2019-02-05T07:33:36.420Z,12.53
2019-02-05T07:36:06.456Z,13.20
2019-02-05T07:38:36.399Z,15.15
2019-02-05T07:41:06.378Z,13.85
2019-02-05T07:43:36.328Z,14.43
2019-02-05T07:46:06.275Z,12.18
2019-02-05T07:48:36.247Z,12.23
2019-02-05T07:51:06.253Z,12.47
2019-02-05T07:53:36.268Z,13.72
2019-02-05T07:56:06.356Z,13.40
2019-02-05T07:58:36.492Z,13.38
2019-02-05T08:01:06.491Z,13.88
2019-02-05T08:03:36.742Z,13.70
2019-02-05T08:06:06.705Z,14.78
2019-02-05T08:08:37.609Z,12.68
2019-02-05T08:11:07.580Z,13.20
2019-02-05T08:13:37.598Z,13.95
2019-02-05T08:16:07.615Z,13.22
2019-02-05T08:18:39.533Z,14.30
2019-02-05T08:21:09.640Z,14.18
2019-02-05T08:23:39.634Z,15.72
2019-02-05T08:26:10.610Z,14.25
2019-02-05T08:28:43.725Z,13.62
2019-02-05T08:31:13.756Z,13.55
2019-02-05T08:33:43.712Z,13.58
2019-02-05T08:36:13.740Z,13.70
2019-02-05T08:38:43.700Z,16.15
2019-02-05T08:41:13.638Z,13.43
2019-02-05T08:43:43.629Z,14.13
2019-02-05T08:46:13.649Z,16.17
2019-02-05T08:48:43.516Z,13.03
2019-02-05T08:51:13.761Z,13.32
2019-02-05T08:53:43.712Z,14.45
2019-02-05T08:56:13.607Z,15.30
2019-02-05T08:58:43.397Z,13.75
2019-02-05T09:01:14.604Z,15.00
2019-02-05T09:03:44.909Z,15.68
2019-02-05T09:06:15.304Z,16.12
2019-02-05T09:08:45.264Z,15.38
2019-02-05T09:11:15.772Z,14.68
2019-02-05T09:13:45.936Z,15.40
2019-02-05T09:16:17.633Z,15.25
2019-02-05T09:18:49.073Z,12.75
2019-02-05T09:21:19.240Z,12.40
2019-02-05T09:23:49.492Z,14.47
2019-02-05T09:26:19.584Z,12.75
2019-02-05T09:28:52.535Z,12.10
2019-02-05T09:31:24.956Z,13.85
2019-02-05T09:33:56.694Z,13.13
2019-02-05T09:36:27.115Z,11.63
2019-02-05T09:38:57.201Z,11.48
2019-02-05T09:41:28.459Z,11.05
2019-02-05T09:44:00.683Z,10.53
2019-02-05T09:46:31.634Z,11.43
2019-02-05T09:49:01.612Z,11.30
2019-02-05T09:51:31.525Z,11.57
2019-02-05T09:54:01.721Z,11.35
2019-02-05T09:56:34.659Z,10.68
2019-02-05T09:59:04.689Z,10.38
2019-02-05T10:01:35.105Z,9.30
2019-02-05T10:04:05.478Z,10.88
2019-02-05T10:06:38.043Z,9.25
2019-02-05T10:09:09.034Z,8.55
2019-02-05T10:11:39.100Z,9.58
2019-02-05T10:14:09.091Z,10.50
2019-02-05T10:16:41.129Z,9.58
2019-02-05T10:19:11.644Z,9.68
2019-02-05T10:21:42.431Z,8.95
2019-02-05T10:24:15.665Z,8.45
2019-02-05T10:26:50.457Z,8.05
2019-02-05T10:29:20.477Z,8.88
2019-02-05T10:31:50.789Z,7.97
2019-02-05T10:34:20.811Z,9.75
2019-02-05T10:36:50.684Z,7.97
2019-02-05T10:39:20.696Z,7.25
2019-02-05T10:41:50.785Z,7.80
2019-02-05T10:44:20.918Z,6.35
2019-02-05T10:46:50.954Z,7.92
2019-02-05T10:49:20.928Z,7.95
2019-02-05T10:51:50.930Z,7.55
2019-02-05T10:54:20.841Z,6.85
2019-02-05T10:56:50.928Z,7.33
2019-02-05T10:59:21.941Z,8.78
2019-02-05T11:01:55.411Z,7.83
2019-02-05T11:04:25.627Z,7.67
2019-02-05T11:06:57.174Z,8.78
2019-02-05T11:09:28.071Z,7.72
2019-02-05T11:11:58.142Z,8.73
2019-02-05T11:14:35.464Z,7.05
2019-02-05T11:17:05.974Z,8.23
2019-02-05T11:19:36.085Z,9.00
2019-02-05T11:22:06.186Z,9.88
2019-02-05T11:24:37.356Z,8.13
2019-02-05T11:27:08.461Z,8.93
2019-02-05T11:29:38.889Z,9.80
2019-02-05T11:32:09.185Z,9.65
2019-02-05T11:34:39.382Z,10.63
2019-02-05T11:37:09.464Z,8.55
2019-02-05T11:39:39.753Z,9.25
2019-02-05T11:42:10.117Z,9.18
2019-02-05T11:44:47.507Z,10.08
2019-02-05T11:47:22.506Z,8.98
2019-02-05T11:49:53.164Z,10.70
2019-02-05T11:52:23.262Z,10.45
2019-02-05T11:54:54.675Z,10.43
2019-02-05T11:57:25.433Z,10.32
2019-02-05T11:59:55.663Z,11.68
2019-02-05T12:02:28.718Z,10.20
2019-02-05T12:04:59.229Z,10.63
2019-02-05T12:07:29.708Z,10.23
2019-02-05T12:10:03.321Z,12.03
2019-02-05T12:12:42.360Z,11.63
2019-02-05T12:15:13.034Z,12.18
2019-02-05T12:17:43.454Z,11.57
2019-02-05T12:20:15.138Z,11.83
2019-02-05T12:22:45.505Z,12.60
2019-02-05T12:25:16.444Z,11.15
2019-02-05T12:27:47.992Z,11.80
2019-02-05T12:30:20.945Z,11.60
2019-02-05T12:32:50.993Z,12.85
2019-02-05T12:35:21.131Z,12.73
2019-02-05T12:37:51.142Z,13.75
2019-02-05T12:40:21.650Z,12.85
2019-02-05T12:42:51.920Z,13.38
2019-02-05T12:45:24.249Z,14.35
2019-02-05T12:47:54.467Z,15.50
2019-02-05T12:50:26.891Z,12.93
2019-02-05T12:52:57.065Z,13.13
2019-02-05T12:55:27.383Z,13.75
2019-02-05T12:57:59.431Z,13.43
2019-02-05T13:00:34.529Z,14.18
2019-02-05T13:03:05.101Z,14.13
2019-02-05T13:05:35.351Z,14.50
2019-02-05T13:08:07.975Z,14.58
2019-02-05T13:10:40.302Z,14.53
2019-02-05T13:13:10.376Z,14.00
2019-02-05T13:15:40.749Z,13.75
2019-02-05T13:18:10.963Z,13.62
2019-02-05T13:20:41.734Z,14.78
2019-02-05T13:23:15.527Z,13.60
2019-02-05T13:25:46.195Z,12.33
2019-02-05T13:28:22.266Z,11.80
2019-02-05T13:30:52.681Z,12.37
2019-02-05T13:33:23.224Z,13.15
2019-02-05T13:35:53.531Z,11.38
2019-02-05T13:38:23.662Z,11.80
2019-02-05T13:40:53.963Z,11.18
2019-02-05T13:43:25.063Z,11.20
2019-02-05T13:45:55.291Z,11.60
2019-02-05T13:48:25.389Z,9.75
2019-02-05T13:50:56.377Z,11.63
2019-02-05T13:53:26.821Z,11.65
2019-02-05T13:55:57.041Z,11.78
2019-02-05T13:58:29.928Z,11.78
2019-02-05T14:01:00.020Z,11.93
2019-02-05T14:03:30.087Z,10.03
2019-02-05T14:06:00.130Z,10.15
2019-02-05T14:08:38.424Z,13.30
2019-02-05T14:11:04.327Z,12.53
2019-02-05T14:13:34.670Z,12.00
2019-02-05T14:16:04.989Z,12.25
2019-02-05T14:18:35.052Z,11.33
2019-02-05T14:21:07.253Z,12.13
2019-02-05T14:23:37.338Z,13.40
2019-02-05T14:26:10.452Z,13.98
2019-02-05T14:28:40.657Z,14.05
2019-02-05T14:31:10.903Z,16.02
2019-02-05T14:33:40.967Z,16.40
2019-02-05T14:36:10.934Z,15.05
2019-02-05T14:38:41.021Z,15.23
2019-02-05T14:41:11.287Z,14.03
2019-02-05T14:43:41.259Z,16.80
2019-02-05T14:46:13.264Z,16.65
2019-02-05T14:48:43.179Z,16.10
2019-02-05T14:51:13.576Z,18.12
2019-02-05T14:53:44.339Z,16.70
2019-02-05T14:56:14.482Z,16.30
2019-02-05T14:58:48.568Z,15.72
2019-02-05T15:01:22.300Z,14.95
2019-02-05T15:03:58.272Z,15.15
2019-02-05T15:06:32.049Z,16.40
2019-02-05T15:09:06.436Z,15.98
2019-02-05T15:11:46.554Z,16.48
2019-02-05T15:14:16.830Z,17.05
2019-02-05T15:16:47.186Z,16.60
2019-02-05T15:19:17.518Z,16.85
2019-02-05T15:21:48.026Z,17.60
2019-02-05T15:24:18.227Z,18.70
2019-02-05T15:26:48.487Z,18.17
2019-02-05T15:29:23.066Z,16.62
2019-02-05T15:31:55.614Z,18.62
2019-02-05T15:34:28.950Z,16.25
2019-02-05T15:37:10.763Z,17.15
2019-02-05T15:39:42.283Z,17.12
2019-02-05T15:42:19.588Z,17.60
2019-02-05T15:44:50.043Z,16.37
2019-02-05T15:47:20.270Z,17.77
2019-02-05T15:49:50.591Z,17.95
2019-02-05T15:52:20.736Z,17.32
2019-02-05T15:54:51.136Z,16.85
2019-02-05T15:57:21.656Z,19.92
2019-02-05T15:59:52.984Z,15.38
2019-02-05T16:02:23.102Z,17.07
2019-02-05T16:04:53.665Z,16.23
2019-02-05T16:07:23.668Z,14.95
2019-02-05T16:09:53.800Z,15.63
2019-02-05T16:12:24.016Z,16.65
2019-02-05T16:14:54.228Z,16.37
2019-02-05T16:17:24.638Z,16.00
2019-02-05T16:19:55.264Z,17.02
2019-02-05T16:22:26.324Z,16.85
2019-02-05T16:24:56.673Z,16.45
2019-02-05T16:27:26.886Z,15.55
2019-02-05T16:29:57.104Z,13.55
2019-02-05T16:32:28.733Z,15.75
2019-02-05T16:35:01.118Z,16.12
2019-02-05T16:37:31.476Z,15.40
2019-02-05T16:40:01.680Z,16.32
2019-02-05T16:42:32.215Z,18.20
2019-02-05T16:45:04.296Z,17.07
2019-02-05T16:47:34.483Z,16.32
2019-02-05T16:50:05.754Z,15.72
2019-02-05T16:52:38.809Z,17.42
2019-02-05T16:55:09.525Z,17.23
2019-02-05T16:57:44.773Z,18.95
2019-02-05T17:00:23.011Z,16.87
2019-02-05T17:02:53.720Z,16.40
2019-02-05T17:05:27.339Z,17.98
2019-02-05T17:07:58.107Z,14.83
2019-02-05T17:10:30.836Z,16.32
2019-02-05T17:13:01.117Z,16.50
2019-02-05T17:15:31.641Z,15.72
2019-02-05T17:18:02.434Z,15.05
2019-02-05T17:20:34.282Z,14.98
2019-02-05T17:23:05.249Z,15.95
2019-02-05T17:25:38.626Z,15.23
2019-02-05T17:28:12.098Z,14.70
2019-02-05T17:30:42.751Z,14.60
2019-02-05T17:33:13.349Z,14.03
2019-02-05T17:35:44.117Z,14.85
2019-02-05T17:38:22.207Z,15.00
2019-02-05T17:41:18.024Z,12.88
2019-02-05T17:43:51.893Z,12.23
2019-02-05T17:46:23.258Z,12.70
2019-02-05T17:48:59.148Z,13.08
2019-02-05T17:51:35.711Z,11.63
2019-02-05T17:54:07.296Z,13.03
2019-02-05T17:56:38.335Z,11.20
2019-02-05T17:59:11.764Z,11.88
2019-02-05T18:01:42.241Z,10.15
2019-02-05T18:04:12.914Z,11.35
2019-02-05T18:06:46.577Z,10.25
2019-02-05T18:09:30.427Z,9.98
2019-02-05T18:12:08.882Z,10.15
2019-02-05T18:14:39.908Z,10.45
2019-02-05T18:17:16.659Z,9.98
2019-02-05T18:19:47.068Z,9.08
2019-02-05T18:22:17.787Z,9.90
2019-02-05T18:24:48.131Z,10.65
2019-02-05T18:27:18.811Z,9.45
2019-02-05T18:29:49.433Z,9.50
2019-02-05T18:32:19.979Z,9.65
2019-02-05T18:34:50.490Z,9.50
2019-02-05T18:37:21.019Z,9.28
2019-02-05T18:39:51.523Z,9.58
2019-02-05T18:42:24.581Z,10.63
2019-02-05T18:44:55.386Z,9.78
2019-02-05T18:47:26.186Z,9.23
2019-02-05T18:49:57.059Z,10.00
2019-02-05T18:52:29.508Z,8.80
2019-02-05T18:55:00.666Z,9.00
2019-02-05T18:57:33.810Z,10.15
2019-02-05T19:00:18.578Z,10.03
2019-02-05T19:02:52.505Z,10.08
2019-02-05T19:05:23.120Z,11.05
2019-02-05T19:07:53.998Z,9.13
2019-02-05T19:10:25.543Z,10.38
2019-02-05T19:12:55.990Z,9.65
2019-02-05T19:15:33.896Z,9.75
2019-02-05T19:18:05.123Z,10.03
2019-02-05T19:20:35.824Z,9.88
2019-02-05T19:23:07.595Z,8.83
2019-02-05T19:25:59.749Z,9.80
2019-02-05T19:28:35.772Z,9.38
2019-02-05T19:31:29.382Z,9.78
2019-02-05T19:34:01.201Z,10.63
2019-02-05T19:36:32.134Z,10.82
2019-02-05T19:39:02.665Z,11.05
2019-02-05T19:41:34.961Z,11.35
2019-02-05T19:44:05.886Z,11.08
2019-02-05T19:47:03.826Z,11.73
2019-02-05T19:49:47.734Z,11.28
2019-02-05T19:52:21.866Z,12.80
2019-02-05T19:54:55.248Z,12.60
2019-02-05T19:57:25.530Z,13.20
2019-02-05T20:00:07.071Z,12.95
2019-02-05T20:02:39.272Z,13.78
2019-02-05T20:05:10.894Z,12.20
2019-02-05T20:07:41.422Z,15.25
2019-02-05T20:10:13.110Z,13.88
2019-02-05T20:12:43.507Z,14.23
2019-02-05T20:15:14.343Z,14.28
2019-02-05T20:17:47.804Z,15.20
2019-02-05T20:20:18.754Z,16.70
2019-02-05T20:22:49.784Z,16.50
2019-02-05T20:25:27.511Z,16.55
2019-02-05T20:28:01.136Z,16.50
2019-02-05T20:30:32.105Z,17.15
2019-02-05T20:33:05.231Z,14.78
2019-02-05T20:35:37.898Z,16.48
2019-02-05T20:38:10.307Z,16.35
2019-02-05T20:40:41.198Z,16.40
2019-02-05T20:43:15.495Z,16.15
2019-02-05T20:45:47.663Z,16.45
2019-02-05T20:48:18.740Z,17.17
2019-02-05T20:50:49.350Z,16.37
2019-02-05T20:53:19.903Z,16.55
2019-02-05T20:55:51.248Z,15.68
2019-02-05T20:58:22.284Z,17.52
2019-02-05T21:00:52.994Z,16.97
2019-02-05T21:03:24.009Z,17.52
2019-02-05T21:05:54.590Z,16.82
2019-02-05T21:08:25.314Z,16.42
2019-02-05T21:11:04.183Z,17.40
2019-02-05T21:13:36.509Z,17.75
2019-02-05T21:16:07.566Z,17.37
2019-02-05T21:18:37.865Z,18.55
2019-02-05T21:21:08.163Z,19.00
2019-02-05T21:23:38.659Z,18.52
2019-02-05T21:26:09.221Z,20.27
2019-02-05T21:28:40.209Z,20.23
2019-02-05T21:31:10.757Z,19.00
2019-02-05T21:33:41.180Z,19.12
2019-02-05T21:36:11.749Z,19.73
2019-02-05T21:38:45.433Z,18.57
2019-02-05T21:41:15.589Z,19.30
2019-02-05T21:43:49.264Z,19.77
2019-02-05T21:46:19.908Z,20.15
2019-02-05T21:48:50.422Z,18.90
2019-02-05T21:51:20.942Z,19.15
2019-02-05T21:53:51.579Z,18.98
2019-02-05T21:56:21.994Z,19.32
2019-02-05T21:58:52.390Z,20.55
2019-02-05T22:01:23.155Z,18.70
2019-02-05T22:03:53.873Z,18.07
2019-02-05T22:06:24.207Z,17.57
2019-02-05T22:08:55.031Z,18.52
2019-02-05T22:11:26.961Z,18.87
2019-02-05T22:13:57.324Z,19.67
2019-02-05T22:16:27.866Z,20.62
2019-02-05T22:18:58.364Z,19.65
2019-02-05T22:21:28.895Z,19.95
2019-02-05T22:23:59.742Z,20.48
2019-02-05T22:26:30.887Z,20.32
2019-02-05T22:29:01.853Z,19.87
2019-02-05T22:31:32.523Z,21.52
2019-02-05T22:34:03.153Z,20.68
2019-02-05T22:36:33.639Z,20.60
2019-02-05T22:39:05.960Z,22.20
2019-02-05T22:41:38.142Z,23.30
2019-02-05T22:44:08.679Z,20.45
2019-02-05T22:46:39.354Z,20.77
2019-02-05T22:49:09.966Z,21.52
2019-02-05T22:51:40.659Z,23.25
2019-02-05T22:54:11.160Z,20.75
2019-02-05T22:56:41.751Z,22.30
2019-02-05T22:59:12.817Z,21.90
2019-02-05T23:01:55.954Z,23.27
2019-02-05T23:05:06.249Z,22.67
2019-02-05T23:07:36.950Z,22.30
2019-02-05T23:11:06.534Z,22.37
2019-02-05T23:13:37.328Z,21.93
2019-02-05T23:16:07.985Z,21.20
2019-02-05T23:18:38.710Z,22.82
2019-02-05T23:21:09.382Z,23.32
2019-02-05T23:23:40.101Z,23.27
2019-02-05T23:26:10.880Z,23.22
2019-02-05T23:28:41.641Z,23.45
2019-02-05T23:31:12.088Z,22.30
2019-02-05T23:33:44.670Z,24.40
2019-02-05T23:36:14.807Z,24.12
2019-02-05T23:38:45.351Z,22.52
2019-02-05T23:41:16.409Z,22.60
2019-02-05T23:43:46.757Z,22.20
2019-02-05T23:46:17.490Z,24.55
2019-02-05T23:48:48.085Z,23.55
2019-02-05T23:51:18.506Z,24.18
2019-02-05T23:53:48.887Z,22.62
2019-02-05T23:56:25.644Z,25.50
2019-02-05T23:58:51.709Z,25.90
